Arltunga, Northern Territory

8:28 AM ACST on December 21, 2014 (GMT +0930)
Alice Springs | Change Station
CLOSE
Current Station
Airport
Location: Alice Springs,
Elevation: 1795 ft
Nearby Weather Stations

Elev 1795 ft 23.80 °S, 133.89 °E | Updated 28 minutes ago

Clear
Clear
84 °F
Feels Like 84 °F
N
13
Wind Variable Wind from ENE

Today
High -- | Low -- °F
--% Chance of Precip.
Yesterday
High -- | Low -- °F
Precip. -- in
5:41 AM 7:16 PM
Waning Crescent, 2% visible
Pressure 29.92 in
Visibility -9999.0 miles
Clouds
Dew Point 36 °F
Humidity 18%
Rainfall 0.00 in
Snow Depth Not available.
UV Not available.
Pollen Not available.
Air Quality Not available.
Flu Activity Not available.
METAR YBAS 202230Z 06011KT CAVOK 29/02 Q1013 RMK 1AC135 7AC165 VIRGA

More Conditions Fewer Conditions

Pressure 29.92 in
Visibility -9999.0 miles
Clouds
Dew Point 36 °F
Humidity 18%
Rainfall 0.00 in
Snow Depth Not available.
UV Not available.
Pollen Not available.
Air Quality Not available.
Flu Activity Not available.
METAR YBAS 202230Z 06011KT CAVOK 29/02 Q1013 RMK 1AC135 7AC165 VIRGA

More Conditions Fewer Conditions

10-Day Weather Forecast

Almanac

Astronomy

Dec. 21, 2014 Rise Set
Actual Time
Civil Twilight
Nautical Twilight
Astronomical Twilight
Moon
Length of Visible Light
Length of Day
Tomorrow will be .
, % of the Moon is Illuminated

Today's Extremes

Country Highs Country Lows

Community

WunderPhotos

Upload Photos

1,779,293 photos uploaded!

WunderBlogs® & News

Nearby

Air Quality

  Air Quality AQ Index Pollutant
Not available.

Snow Depth

Station Depth Elevation

Earthquake Activity

City Distance Mag. Time & Date
Minimum magnitude displayed is 2.5.

Coastal Water Temperatures

Place Temperature

Nearby Weather Stations